createdAt,value
2023-01-17T00:02:24.246Z,11.20
2023-01-17T00:05:09.840Z,11.52
2023-01-17T00:07:57.777Z,10.82
2023-01-17T00:10:27.449Z,11.35
2023-01-17T00:13:03.403Z,10.53
2023-01-17T00:15:33.876Z,10.75
2023-01-17T00:18:00.612Z,9.80
2023-01-17T00:20:49.671Z,10.35
2023-01-17T00:24:01.034Z,10.35
2023-01-17T00:26:27.961Z,9.30
2023-01-17T00:28:54.739Z,10.20
2023-01-17T00:31:22.747Z,9.93
2023-01-17T00:33:49.449Z,9.27
2023-01-17T00:36:20.456Z,11.73
2023-01-17T00:38:47.144Z,9.40
2023-01-17T00:41:15.596Z,8.88
2023-01-17T00:44:01.601Z,8.68
2023-01-17T00:46:46.867Z,8.23
2023-01-17T00:49:32.406Z,8.60
2023-01-17T00:52:18.899Z,8.63
2023-01-17T00:55:04.306Z,7.50
2023-01-17T00:57:49.509Z,7.97
2023-01-17T01:00:38.445Z,7.93
2023-01-17T01:03:28.433Z,7.60
2023-01-17T01:06:13.821Z,6.63
2023-01-17T01:08:59.479Z,5.97
2023-01-17T01:11:45.028Z,5.60
2023-01-17T01:14:30.370Z,6.25
2023-01-17T01:17:15.982Z,5.80
2023-01-17T01:20:01.401Z,6.57
2023-01-17T01:22:47.957Z,6.05
2023-01-17T01:25:35.258Z,5.97
2023-01-17T01:28:29.244Z,5.97
2023-01-17T01:31:14.594Z,6.07
2023-01-17T01:33:41.396Z,5.72
2023-01-17T01:36:09.299Z,5.95
2023-01-17T01:38:36.419Z,5.32
2023-01-17T01:41:05.292Z,6.07
2023-01-17T01:44:01.469Z,5.80
2023-01-17T01:46:39.970Z,5.57
2023-01-17T01:49:20.768Z,5.20
2023-01-17T01:51:59.652Z,5.15
2023-01-17T01:54:50.050Z,5.10
2023-01-17T01:57:20.559Z,4.95
2023-01-17T01:59:57.343Z,5.50
2023-01-17T02:02:24.141Z,5.28
2023-01-17T02:04:53.028Z,5.40
2023-01-17T02:07:29.829Z,5.75
2023-01-17T02:09:58.592Z,5.28
2023-01-17T02:12:25.751Z,5.68
2023-01-17T02:14:52.456Z,4.82
2023-01-17T02:17:50.511Z,4.65
2023-01-17T02:20:47.510Z,4.93
2023-01-17T02:23:48.263Z,4.50
2023-01-17T02:26:23.901Z,5.05
2023-01-17T02:29:12.453Z,5.65
2023-01-17T02:31:51.191Z,4.93
2023-01-17T02:34:27.163Z,5.47
2023-01-17T02:37:07.284Z,4.20
2023-01-17T02:40:02.172Z,4.50
2023-01-17T02:42:40.687Z,4.88
2023-01-17T02:45:08.413Z,4.70
2023-01-17T02:47:35.454Z,4.47
2023-01-17T02:50:17.237Z,5.13
2023-01-17T02:53:02.749Z,4.30
2023-01-17T02:55:42.246Z,4.53
2023-01-17T02:58:33.638Z,4.93
2023-01-17T03:01:20.852Z,4.40
2023-01-17T03:04:14.064Z,6.35
2023-01-17T03:06:44.041Z,4.70
2023-01-17T03:09:12.789Z,5.88
2023-01-17T03:11:39.665Z,5.05
2023-01-17T03:14:08.049Z,5.72
2023-01-17T03:16:35.469Z,5.18
2023-01-17T03:19:03.045Z,5.15
2023-01-17T03:21:30.166Z,4.75
2023-01-17T03:23:58.554Z,5.18
2023-01-17T03:26:28.345Z,5.70
2023-01-17T03:28:56.617Z,6.60
2023-01-17T03:31:24.920Z,5.90
2023-01-17T03:33:52.403Z,4.97
2023-01-17T03:36:20.591Z,4.75
2023-01-17T03:38:48.819Z,5.10
2023-01-17T03:41:19.534Z,5.00
2023-01-17T03:46:30.132Z,4.93
2023-01-17T03:48:57.297Z,4.80
2023-01-17T03:51:25.497Z,4.10
2023-01-17T03:53:52.513Z,4.75
2023-01-17T03:56:20.798Z,3.72
2023-01-17T03:58:48.048Z,5.00
2023-01-17T04:01:17.177Z,4.60
2023-01-17T04:03:44.119Z,4.43
2023-01-17T04:06:14.177Z,3.75
2023-01-17T04:08:42.639Z,3.90
2023-01-17T04:11:16.898Z,3.63
2023-01-17T04:13:43.809Z,3.50
2023-01-17T04:16:14.670Z,3.78
2023-01-17T04:18:44.960Z,3.95
2023-01-17T04:21:17.986Z,4.10
2023-01-17T04:23:47.496Z,3.38
2023-01-17T04:26:14.586Z,4.43
2023-01-17T04:28:43.052Z,3.95
2023-01-17T04:31:18.912Z,3.60
2023-01-17T04:33:51.223Z,4.00
2023-01-17T04:36:18.155Z,4.03
2023-01-17T04:38:48.385Z,4.10
2023-01-17T04:41:17.034Z,4.25
2023-01-17T04:43:43.892Z,4.72
2023-01-17T04:46:11.280Z,4.13
2023-01-17T04:48:38.737Z,4.15
2023-01-17T04:51:08.287Z,4.85
2023-01-17T04:53:39.330Z,3.67
2023-01-17T04:56:06.760Z,3.65
2023-01-17T04:58:34.440Z,3.75
2023-01-17T05:01:06.406Z,4.60
2023-01-17T05:03:36.610Z,4.03
2023-01-17T05:06:03.759Z,4.07
2023-01-17T05:08:30.760Z,4.00
2023-01-17T05:10:58.057Z,3.40
2023-01-17T05:13:24.982Z,4.65
2023-01-17T05:15:52.051Z,4.93
2023-01-17T05:18:19.672Z,5.13
2023-01-17T05:20:47.064Z,5.03
2023-01-17T05:23:13.815Z,4.28
2023-01-17T05:25:44.384Z,4.70
2023-01-17T05:30:41.277Z,4.15
2023-01-17T05:33:10.249Z,3.70
2023-01-17T05:35:37.933Z,4.13
2023-01-17T05:38:04.934Z,4.68
2023-01-17T05:40:33.359Z,4.72
2023-01-17T05:43:01.736Z,5.10
2023-01-17T05:45:29.974Z,5.85
2023-01-17T05:48:00.339Z,5.47
2023-01-17T05:50:36.863Z,5.82
2023-01-17T05:53:12.760Z,5.38
2023-01-17T05:55:40.867Z,6.95
2023-01-17T05:58:12.370Z,6.35
2023-01-17T06:00:39.672Z,7.70
2023-01-17T06:03:06.397Z,6.35
2023-01-17T06:05:33.121Z,7.35
2023-01-17T06:08:01.216Z,7.40
2023-01-17T06:10:29.599Z,9.88
2023-01-17T06:13:07.288Z,9.75
2023-01-17T06:15:36.978Z,9.60
2023-01-17T06:18:06.024Z,11.55
2023-01-17T06:20:34.092Z,10.32
2023-01-17T06:23:04.342Z,9.30
2023-01-17T06:25:45.504Z,11.38
2023-01-17T06:28:22.952Z,10.48
2023-01-17T06:30:50.355Z,10.70
2023-01-17T06:33:17.118Z,11.32
2023-01-17T06:35:50.805Z,8.13
2023-01-17T06:38:17.566Z,9.95
2023-01-17T06:40:44.345Z,7.25
2023-01-17T06:43:13.457Z,7.38
2023-01-17T06:45:40.196Z,5.82
2023-01-17T06:48:07.067Z,6.57
2023-01-17T06:50:34.718Z,7.75
2023-01-17T06:53:03.969Z,15.60
2023-01-17T06:55:33.728Z,14.10
2023-01-17T06:58:03.117Z,19.70
2023-01-17T07:00:31.584Z,22.77
2023-01-17T07:02:58.402Z,21.80
2023-01-17T07:05:27.302Z,21.65
2023-01-17T07:07:54.652Z,18.67
2023-01-17T07:10:22.084Z,21.00
2023-01-17T07:12:48.825Z,20.92
2023-01-17T07:15:15.627Z,19.33
2023-01-17T07:17:42.381Z,19.33
2023-01-17T07:20:09.752Z,18.70
2023-01-17T07:22:37.757Z,22.00
2023-01-17T07:25:05.136Z,23.10
2023-01-17T07:27:33.463Z,26.30
2023-01-17T07:30:03.564Z,25.67
2023-01-17T07:32:30.296Z,28.52
2023-01-17T07:34:58.822Z,27.25
2023-01-17T07:37:26.478Z,29.85
2023-01-17T07:39:53.782Z,26.95
2023-01-17T07:42:23.209Z,28.95
2023-01-17T07:44:50.711Z,23.88
2023-01-17T07:47:18.557Z,25.55
2023-01-17T07:49:45.334Z,25.92
2023-01-17T07:52:12.090Z,21.00
2023-01-17T07:54:38.869Z,23.70
2023-01-17T07:57:06.288Z,25.20
2023-01-17T07:59:34.674Z,30.08
2023-01-17T08:02:01.595Z,31.60
2023-01-17T08:04:34.552Z,35.05
2023-01-17T08:07:02.592Z,33.45
2023-01-17T08:09:29.569Z,35.03
2023-01-17T08:11:56.375Z,34.70
2023-01-17T08:14:23.284Z,30.20
2023-01-17T08:16:55.077Z,27.67
2023-01-17T08:19:23.199Z,25.67
2023-01-17T08:21:52.033Z,26.35
2023-01-17T08:24:20.351Z,22.08
2023-01-17T08:26:53.832Z,22.52
2023-01-17T08:29:21.278Z,17.40
2023-01-17T08:31:50.844Z,14.30
2023-01-17T08:34:18.740Z,13.65
2023-01-17T08:36:47.918Z,13.32
2023-01-17T08:39:16.386Z,11.52
2023-01-17T08:41:44.406Z,11.00
2023-01-17T08:44:15.215Z,9.88
2023-01-17T08:46:44.162Z,8.95
2023-01-17T08:49:19.989Z,7.75
2023-01-17T08:51:46.763Z,8.93
2023-01-17T08:54:16.677Z,10.38
2023-01-17T08:56:44.888Z,10.55
2023-01-17T08:59:13.497Z,11.32
2023-01-17T09:01:46.328Z,12.23
2023-01-17T09:04:19.081Z,11.50
2023-01-17T09:06:48.229Z,9.68
2023-01-17T09:09:17.313Z,13.18
2023-01-17T09:11:44.419Z,12.95
2023-01-17T09:14:14.315Z,13.00
2023-01-17T09:16:41.230Z,9.90
2023-01-17T09:19:09.271Z,9.18
2023-01-17T09:21:35.982Z,7.57
2023-01-17T09:24:04.082Z,9.10
2023-01-17T09:26:31.984Z,8.73
2023-01-17T09:28:58.849Z,9.50
2023-01-17T09:31:27.362Z,9.65
2023-01-17T09:33:55.554Z,8.88
2023-01-17T09:36:23.116Z,11.25
2023-01-17T09:38:50.560Z,10.50
2023-01-17T09:41:27.974Z,10.02
2023-01-17T09:44:25.768Z,9.77
2023-01-17T09:47:04.874Z,10.15
2023-01-17T09:49:43.632Z,10.75
2023-01-17T09:52:14.919Z,10.15
2023-01-17T09:54:44.769Z,11.23
2023-01-17T09:57:26.368Z,11.45
2023-01-17T10:00:29.157Z,11.68
2023-01-17T10:03:09.376Z,11.77
2023-01-17T10:05:57.430Z,11.23
2023-01-17T10:08:42.921Z,10.18
2023-01-17T10:11:28.179Z,11.93
2023-01-17T10:14:37.164Z,11.85
2023-01-17T10:17:03.835Z,14.15
2023-01-17T10:20:02.763Z,15.27
2023-01-17T10:22:57.002Z,14.02
2023-01-17T10:25:35.319Z,13.13
2023-01-17T10:28:24.323Z,13.75
2023-01-17T10:31:13.629Z,12.98
2023-01-17T10:33:52.723Z,12.38
2023-01-17T10:36:25.410Z,11.88
2023-01-17T10:39:04.701Z,13.20
2023-01-17T10:41:38.061Z,12.63
2023-01-17T10:44:19.017Z,12.70
2023-01-17T10:46:53.636Z,13.35
2023-01-17T10:49:23.454Z,13.55
2023-01-17T10:51:59.831Z,14.20
2023-01-17T10:54:48.263Z,13.52
2023-01-17T10:57:23.586Z,12.68
2023-01-17T10:59:51.103Z,13.27
2023-01-17T11:02:24.556Z,14.77
2023-01-17T11:04:54.685Z,13.38
2023-01-17T11:07:23.523Z,13.48
2023-01-17T11:09:53.591Z,13.73
2023-01-17T11:12:44.459Z,12.35
2023-01-17T11:15:52.698Z,11.27
2023-01-17T11:19:32.133Z,12.20
2023-01-17T11:26:02.240Z,13.15
2023-01-17T11:28:47.585Z,12.27
2023-01-17T11:31:16.524Z,16.00
2023-01-17T11:34:33.947Z,18.10
2023-01-17T11:37:31.974Z,14.98
2023-01-17T11:40:21.579Z,14.65
2023-01-17T11:43:00.819Z,17.25
2023-01-17T11:45:31.324Z,11.75
2023-01-17T11:48:12.355Z,11.27
2023-01-17T11:50:40.764Z,9.90
2023-01-17T11:53:24.943Z,9.25
2023-01-17T11:56:11.535Z,10.15
2023-01-17T11:58:41.861Z,9.80
2023-01-17T12:01:29.529Z,8.70
2023-01-17T12:04:21.137Z,8.85
2023-01-17T12:07:03.200Z,8.93
2023-01-17T12:09:48.789Z,8.38
2023-01-17T12:12:53.333Z,8.75
2023-01-17T12:15:23.217Z,9.38
2023-01-17T12:18:09.126Z,8.10
2023-01-17T12:21:06.551Z,9.95
2023-01-17T12:23:55.333Z,8.18
2023-01-17T12:26:35.175Z,8.43
2023-01-17T12:29:23.586Z,8.35
2023-01-17T12:32:11.116Z,8.23
2023-01-17T12:34:52.918Z,7.07
2023-01-17T12:37:29.897Z,7.93
2023-01-17T12:40:10.033Z,8.35
2023-01-17T12:42:51.795Z,8.60
2023-01-17T12:45:30.926Z,7.45
2023-01-17T12:48:26.865Z,8.50
2023-01-17T12:51:19.122Z,9.25
2023-01-17T12:54:21.273Z,8.15
2023-01-17T12:57:00.437Z,8.38
2023-01-17T13:00:12.491Z,7.80
2023-01-17T13:02:49.279Z,9.02
2023-01-17T13:05:23.874Z,7.55
2023-01-17T13:07:56.688Z,7.90
2023-01-17T13:10:47.854Z,8.63
2023-01-17T13:13:29.946Z,8.57
2023-01-17T13:16:10.984Z,9.35
2023-01-17T13:18:57.853Z,7.82
2023-01-17T13:21:49.334Z,8.25
2023-01-17T13:24:50.480Z,8.23
2023-01-17T13:27:56.395Z,8.65
2023-01-17T13:31:23.862Z,8.07
2023-01-17T13:34:21.606Z,8.50
2023-01-17T13:37:26.908Z,8.68
2023-01-17T13:40:02.522Z,9.38
2023-01-17T13:43:14.619Z,7.13
2023-01-17T13:45:41.757Z,8.20
2023-01-17T13:48:28.324Z,8.20
2023-01-17T13:51:13.142Z,8.60
2023-01-17T13:53:43.261Z,7.30
2023-01-17T13:56:28.239Z,11.27
2023-01-17T13:59:02.817Z,8.82
2023-01-17T14:01:38.513Z,7.05
2023-01-17T14:04:14.367Z,8.38
2023-01-17T14:06:56.720Z,8.25
2023-01-17T14:09:27.578Z,7.25
2023-01-17T14:12:31.584Z,6.68
2023-01-17T14:15:04.521Z,7.63
2023-01-17T14:17:53.846Z,7.28
2023-01-17T14:20:27.628Z,7.93
2023-01-17T14:23:02.246Z,7.50
2023-01-17T14:25:50.476Z,7.40
2023-01-17T14:28:49.721Z,9.07
2023-01-17T14:31:24.060Z,8.90
2023-01-17T14:34:15.487Z,10.15
2023-01-17T14:36:42.716Z,9.70
2023-01-17T14:39:32.445Z,8.48
2023-01-17T14:41:59.468Z,12.18
2023-01-17T14:44:27.037Z,12.00
2023-01-17T14:50:04.866Z,10.02
2023-01-17T14:52:48.606Z,8.00
2023-01-17T14:55:46.005Z,12.13
2023-01-17T14:58:46.626Z,15.45
2023-01-17T15:01:22.642Z,17.35
2023-01-17T15:06:56.031Z,14.15
2023-01-17T15:09:29.594Z,12.65
2023-01-17T15:12:27.669Z,12.95
2023-01-17T15:15:03.189Z,10.57
2023-01-17T15:18:07.495Z,10.68
2023-01-17T15:20:37.704Z,11.65
2023-01-17T15:23:04.922Z,12.23
2023-01-17T15:28:24.353Z,13.40
2023-01-17T15:31:43.120Z,14.43
2023-01-17T15:34:38.052Z,14.18
2023-01-17T15:37:10.767Z,15.85
2023-01-17T15:39:43.987Z,14.85
2023-01-17T15:43:02.408Z,16.27
2023-01-17T15:45:33.495Z,18.13
2023-01-17T15:48:52.513Z,22.70
2023-01-17T15:51:53.046Z,21.38
2023-01-17T15:54:52.157Z,24.27
2023-01-17T15:57:41.521Z,28.67
2023-01-17T16:00:38.369Z,30.52
2023-01-17T16:03:40.536Z,34.50
2023-01-17T16:27:44.291Z,34.58
2023-01-17T16:30:15.443Z,34.90
2023-01-17T16:32:52.230Z,42.17
2023-01-17T16:35:22.148Z,49.28
2023-01-17T16:37:55.119Z,52.65
2023-01-17T16:40:25.947Z,48.58
2023-01-17T16:42:53.170Z,49.75
2023-01-17T16:45:20.024Z,47.08
2023-01-17T16:47:48.160Z,48.50
2023-01-17T16:50:17.636Z,49.17
2023-01-17T16:52:44.446Z,47.92
2023-01-17T16:55:14.823Z,48.03
2023-01-17T16:57:42.091Z,46.67
2023-01-17T17:00:11.116Z,46.30
2023-01-17T17:06:35.387Z,44.67
2023-01-17T17:12:15.473Z,43.45
2023-01-17T17:15:07.447Z,47.83
2023-01-17T17:17:40.997Z,57.15
2023-01-17T17:20:13.386Z,54.75
2023-01-17T17:22:44.049Z,45.47
2023-01-17T17:27:51.785Z,35.67
2023-01-17T17:31:04.308Z,34.28
2023-01-17T17:33:47.104Z,36.38
2023-01-17T17:42:57.556Z,59.58
2023-01-17T17:46:29.280Z,55.78
2023-01-17T17:48:55.522Z,52.28
2023-01-17T17:56:03.328Z,52.00
2023-01-17T17:59:46.695Z,66.15
2023-01-17T18:41:42.928Z,90.00
2023-01-17T18:45:21.410Z,94.38
2023-01-17T18:50:36.603Z,87.43
2023-01-17T19:04:43.235Z,89.15
2023-01-17T19:10:25.994Z,89.38
2023-01-17T19:13:35.270Z,86.60
2023-01-17T19:17:28.834Z,91.82
2023-01-17T19:19:30.938Z,93.13
2023-01-17T19:21:59.247Z,103.80
2023-01-17T19:24:28.685Z,86.47
2023-01-17T19:26:55.474Z,97.68
2023-01-17T19:29:24.476Z,85.95
2023-01-17T19:31:58.677Z,88.63
2023-01-17T19:34:28.495Z,86.95
2023-01-17T19:36:56.305Z,78.78
2023-01-17T19:39:25.531Z,72.38
2023-01-17T19:41:53.445Z,81.40
2023-01-17T19:44:45.727Z,80.53
2023-01-17T19:47:15.167Z,79.45
2023-01-17T19:49:46.661Z,78.07
2023-01-17T19:52:13.686Z,77.05
2023-01-17T19:54:41.874Z,75.10
2023-01-17T19:57:08.738Z,67.43
2023-01-17T19:59:35.998Z,59.75
2023-01-17T20:02:03.006Z,59.72
2023-01-17T20:04:30.114Z,51.33
2023-01-17T20:06:58.389Z,46.40
2023-01-17T20:09:27.119Z,45.97
2023-01-17T20:11:54.251Z,41.15
2023-01-17T20:14:23.009Z,47.63
2023-01-17T20:16:51.864Z,51.00
2023-01-17T20:19:18.800Z,48.58
2023-01-17T20:21:46.356Z,39.40
2023-01-17T20:24:16.682Z,38.67
2023-01-17T20:26:44.203Z,36.65
2023-01-17T20:29:14.604Z,32.70
2023-01-17T20:31:43.604Z,36.38
2023-01-17T20:34:14.312Z,29.98
2023-01-17T20:39:13.402Z,29.45
2023-01-17T20:41:42.145Z,30.92
2023-01-17T20:44:25.623Z,32.08
2023-01-17T20:46:52.395Z,33.05
2023-01-17T20:49:20.169Z,32.97
2023-01-17T20:51:47.584Z,34.78
2023-01-17T20:54:16.691Z,34.33
2023-01-17T20:56:46.689Z,35.72
2023-01-17T20:59:23.646Z,33.88
2023-01-17T21:01:50.698Z,32.95
2023-01-17T21:04:22.919Z,36.67
2023-01-17T21:06:51.656Z,36.60
2023-01-17T21:09:21.185Z,32.30
2023-01-17T21:11:48.360Z,30.95
2023-01-17T21:14:15.284Z,33.20
2023-01-17T21:16:42.099Z,29.63
2023-01-17T21:19:13.184Z,29.60
2023-01-17T21:27:38.642Z,28.75
2023-01-17T21:30:13.468Z,27.35
2023-01-17T21:32:46.778Z,27.77
2023-01-17T21:35:22.541Z,26.90
2023-01-17T21:38:25.206Z,27.58
2023-01-17T21:41:26.574Z,25.20
2023-01-17T21:45:05.028Z,28.42
2023-01-17T21:48:18.898Z,27.65
2023-01-17T21:55:41.102Z,28.15
2023-01-17T22:12:32.433Z,27.65
2023-01-17T22:15:19.713Z,25.67
2023-01-17T22:18:16.390Z,26.83
2023-01-17T22:21:14.844Z,28.58
2023-01-17T22:24:12.649Z,28.02
2023-01-17T22:26:42.058Z,24.38
2023-01-17T22:29:19.151Z,28.13
2023-01-17T22:31:51.029Z,27.30
2023-01-17T22:34:25.985Z,26.75
2023-01-17T22:37:13.130Z,29.33
2023-01-17T22:39:42.397Z,28.70
2023-01-17T22:42:13.494Z,30.27
2023-01-17T22:44:43.986Z,28.83
2023-01-17T22:47:22.807Z,29.75
2023-01-17T22:49:53.100Z,34.42
2023-01-17T22:52:21.369Z,32.05
2023-01-17T22:54:54.685Z,29.60
2023-01-17T22:57:23.611Z,25.90
2023-01-17T22:59:51.307Z,24.83
2023-01-17T23:02:21.991Z,22.17
2023-01-17T23:07:16.115Z,20.42
2023-01-17T23:09:42.857Z,20.60
2023-01-17T23:12:10.403Z,22.50
2023-01-17T23:15:00.352Z,19.65
2023-01-17T23:17:46.113Z,21.40
2023-01-17T23:20:12.846Z,21.13
2023-01-17T23:22:39.543Z,20.08
2023-01-17T23:25:13.678Z,18.77
2023-01-17T23:29:03.990Z,19.80
2023-01-17T23:31:19.649Z,18.42
2023-01-17T23:33:49.377Z,16.17
2023-01-17T23:36:31.211Z,18.43
2023-01-17T23:38:57.871Z,17.42
2023-01-17T23:41:43.410Z,17.40
2023-01-17T23:44:10.130Z,16.08
2023-01-17T23:46:36.914Z,16.23
2023-01-17T23:49:03.787Z,17.50
2023-01-17T23:51:31.550Z,18.50
2023-01-17T23:54:05.313Z,25.83
2023-01-17T23:56:32.196Z,26.17
2023-01-17T23:58:58.954Z,17.63
